createdAt,value
2018-02-27T00:00:33.028Z,0
2018-02-27T00:01:35.751Z,0
2018-02-27T00:02:38.168Z,0
2018-02-27T00:03:40.583Z,0
2018-02-27T00:04:43.290Z,0
2018-02-27T00:05:45.990Z,0
2018-02-27T00:06:48.391Z,0
2018-02-27T00:07:50.813Z,0
2018-02-27T00:08:53.228Z,0
2018-02-27T00:09:55.647Z,0
2018-02-27T00:10:58.065Z,0
2018-02-27T00:12:01.071Z,0
2018-02-27T00:13:03.479Z,0
2018-02-27T00:14:05.902Z,0
2018-02-27T00:15:08.309Z,0
2018-02-27T00:16:10.725Z,0
2018-02-27T00:17:13.420Z,0
2018-02-27T00:18:16.124Z,0
2018-02-27T00:19:18.537Z,0
2018-02-27T00:20:20.959Z,0
2018-02-27T00:21:23.366Z,0
2018-02-27T00:22:25.781Z,0
2018-02-27T00:23:28.201Z,0
2018-02-27T00:24:30.610Z,0
2018-02-27T00:25:33.023Z,0
2018-02-27T00:26:35.442Z,0
2018-02-27T00:27:37.848Z,0
2018-02-27T00:28:40.269Z,0
2018-02-27T00:29:42.676Z,0
2018-02-27T00:30:45.368Z,0
2018-02-27T00:31:47.779Z,0
2018-02-27T00:32:50.192Z,0
2018-02-27T00:33:52.609Z,0
2018-02-27T00:34:55.022Z,0
2018-02-27T00:35:57.443Z,0
2018-02-27T00:36:59.853Z,0
2018-02-27T00:38:02.564Z,0
2018-02-27T00:39:05.265Z,0
2018-02-27T00:40:07.676Z,0
2018-02-27T00:41:10.671Z,0
2018-02-27T00:42:13.079Z,0
2018-02-27T00:43:15.767Z,0
2018-02-27T00:44:18.183Z,0
2018-02-27T00:45:20.592Z,0
2018-02-27T00:46:23.005Z,0
2018-02-27T00:47:25.430Z,0
2018-02-27T00:48:27.839Z,0
2018-02-27T00:49:30.250Z,0
2018-02-27T00:50:32.953Z,0
2018-02-27T00:51:35.361Z,0
2018-02-27T00:52:37.774Z,0
2018-02-27T00:53:40.189Z,0
2018-02-27T00:54:42.591Z,0
2018-02-27T00:55:45.013Z,0
2018-02-27T00:56:47.437Z,0
2018-02-27T00:57:49.848Z,0
2018-02-27T00:58:52.261Z,0
2018-02-27T00:59:54.684Z,0
2018-02-27T01:00:57.095Z,0
2018-02-27T01:01:59.490Z,0
2018-02-27T01:03:01.912Z,0
2018-02-27T01:04:04.330Z,0
2018-02-27T01:05:06.744Z,0
2018-02-27T01:06:09.156Z,0
2018-02-27T01:07:11.572Z,0
2018-02-27T01:08:13.988Z,0
2018-02-27T01:09:16.406Z,0
2018-02-27T01:10:18.818Z,0
2018-02-27T01:11:21.240Z,0
2018-02-27T01:12:23.649Z,0
2018-02-27T01:13:26.125Z,0
2018-02-27T01:14:28.477Z,0
2018-02-27T01:15:30.891Z,0
2018-02-27T01:16:33.306Z,0
2018-02-27T01:17:35.722Z,0
2018-02-27T01:18:38.135Z,0
2018-02-27T01:19:40.556Z,0
2018-02-27T01:20:42.958Z,0
2018-02-27T01:21:45.381Z,0
2018-02-27T01:22:47.795Z,0
2018-02-27T01:23:50.207Z,0
2018-02-27T01:24:52.623Z,0
2018-02-27T01:25:55.038Z,0
2018-02-27T01:26:57.446Z,0
2018-02-27T01:27:59.873Z,0
2018-02-27T01:29:02.290Z,0
2018-02-27T01:30:04.713Z,0
2018-02-27T01:31:07.700Z,0
2018-02-27T01:32:10.122Z,0
2018-02-27T01:33:12.539Z,0
2018-02-27T01:34:14.942Z,0
2018-02-27T01:35:17.373Z,0
2018-02-27T01:36:20.355Z,0
2018-02-27T01:37:22.765Z,0
2018-02-27T01:38:25.186Z,0
2018-02-27T01:39:27.598Z,0
2018-02-27T01:40:30.011Z,0
2018-02-27T01:41:32.426Z,0
2018-02-27T01:42:34.836Z,0
2018-02-27T01:43:37.259Z,0
2018-02-27T01:44:39.670Z,0
2018-02-27T01:45:42.085Z,0
2018-02-27T01:46:44.505Z,0
2018-02-27T01:47:46.920Z,0
2018-02-27T01:48:49.339Z,0
2018-02-27T01:49:52.048Z,0
2018-02-27T01:50:54.457Z,0
2018-02-27T01:51:57.165Z,0
2018-02-27T01:52:59.573Z,0
2018-02-27T01:54:02.280Z,0
2018-02-27T01:55:04.690Z,0
2018-02-27T01:56:07.106Z,0
2018-02-27T01:57:09.525Z,0
2018-02-27T01:58:11.935Z,0
2018-02-27T01:59:14.354Z,0
2018-02-27T02:00:16.781Z,0
2018-02-27T02:01:19.184Z,0
2018-02-27T02:02:21.892Z,0
2018-02-27T02:03:24.301Z,0
2018-02-27T02:04:26.726Z,0
2018-02-27T02:05:29.429Z,0
2018-02-27T02:06:31.841Z,0
2018-02-27T02:07:34.247Z,0
2018-02-27T02:08:36.674Z,0
2018-02-27T02:09:39.084Z,0
2018-02-27T02:10:41.496Z,0
2018-02-27T02:11:43.911Z,0
2018-02-27T02:12:46.333Z,0
2018-02-27T02:13:48.756Z,0
2018-02-27T02:14:51.455Z,0
2018-02-27T02:15:53.869Z,0
2018-02-27T02:16:56.285Z,0
2018-02-27T02:17:58.996Z,0
2018-02-27T02:19:01.411Z,0
2018-02-27T02:20:03.830Z,0
2018-02-27T02:21:06.237Z,0
2018-02-27T02:22:08.651Z,0
2018-02-27T02:23:11.066Z,0
2018-02-27T02:24:13.779Z,0
2018-02-27T02:25:16.471Z,0
2018-02-27T02:26:18.889Z,0
2018-02-27T02:27:21.315Z,0
2018-02-27T02:28:24.006Z,0
2018-02-27T02:29:26.719Z,0
2018-02-27T02:30:29.155Z,0
2018-02-27T02:31:31.552Z,0
2018-02-27T02:32:34.272Z,0
2018-02-27T02:33:36.995Z,0
2018-02-27T02:34:39.680Z,0
2018-02-27T02:35:42.114Z,0
2018-02-27T02:36:44.538Z,0
2018-02-27T02:37:46.952Z,0
2018-02-27T02:38:49.656Z,0
2018-02-27T02:39:52.951Z,0
2018-02-27T02:40:55.366Z,0
2018-02-27T02:41:57.798Z,0
2018-02-27T02:43:00.193Z,0
2018-02-27T02:44:02.626Z,0
2018-02-27T02:45:05.036Z,0
2018-02-27T02:46:07.448Z,0
2018-02-27T02:47:10.143Z,0
2018-02-27T02:48:12.563Z,0
2018-02-27T02:49:14.980Z,0
2018-02-27T02:50:17.400Z,0
2018-02-27T02:51:20.095Z,0
2018-02-27T02:52:22.509Z,0
2018-02-27T02:53:24.933Z,0
2018-02-27T02:54:27.349Z,0
2018-02-27T02:55:29.763Z,0
2018-02-27T02:56:32.181Z,0
2018-02-27T02:57:34.604Z,0
2018-02-27T02:58:37.009Z,0
2018-02-27T02:59:39.425Z,0
2018-02-27T03:00:41.840Z,0
2018-02-27T03:01:44.256Z,0
2018-02-27T03:02:46.666Z,0
2018-02-27T03:03:49.084Z,0
2018-02-27T03:04:51.486Z,0
2018-02-27T03:05:55.095Z,0
2018-02-27T03:06:57.505Z,0
2018-02-27T03:07:59.912Z,0
2018-02-27T03:09:02.335Z,0
2018-02-27T03:10:04.746Z,0
2018-02-27T03:11:07.449Z,0
2018-02-27T03:12:10.149Z,0
2018-02-27T03:13:12.565Z,0
2018-02-27T03:14:14.973Z,0
2018-02-27T03:15:17.393Z,0
2018-02-27T03:16:19.808Z,0
2018-02-27T03:17:22.210Z,0
2018-02-27T03:18:24.926Z,0
2018-02-27T03:19:27.337Z,0
2018-02-27T03:20:29.760Z,0
2018-02-27T03:21:32.172Z,0
2018-02-27T03:22:34.624Z,0
2018-02-27T03:23:37.008Z,0
2018-02-27T03:24:39.419Z,0
2018-02-27T03:25:41.866Z,0
2018-02-27T03:26:44.529Z,0
2018-02-27T03:27:46.943Z,0
2018-02-27T03:28:49.645Z,0
2018-02-27T03:29:52.044Z,0
2018-02-27T03:30:54.456Z,0
2018-02-27T03:31:56.880Z,0
2018-02-27T03:32:59.291Z,0
2018-02-27T03:34:01.988Z,0
2018-02-27T03:35:04.402Z,0
2018-02-27T03:36:06.822Z,0
2018-02-27T03:37:09.240Z,0
2018-02-27T03:38:11.664Z,0
2018-02-27T03:39:14.067Z,0
2018-02-27T03:40:16.484Z,0
2018-02-27T03:41:18.910Z,0
2018-02-27T03:42:21.598Z,0
2018-02-27T03:43:24.008Z,0
2018-02-27T03:44:26.424Z,0
2018-02-27T03:45:28.840Z,0
2018-02-27T03:46:31.255Z,0
2018-02-27T03:47:33.672Z,0
2018-02-27T03:48:36.078Z,0
2018-02-27T03:49:38.497Z,0
2018-02-27T03:50:40.919Z,0
2018-02-27T03:51:43.336Z,0
2018-02-27T03:52:46.330Z,0
2018-02-27T03:53:48.749Z,0
2018-02-27T03:54:51.163Z,0
2018-02-27T03:55:53.578Z,0
2018-02-27T03:56:56.579Z,0
2018-02-27T03:57:58.985Z,0
2018-02-27T03:59:01.399Z,0
2018-02-27T04:00:04.101Z,0
2018-02-27T04:01:06.519Z,0
2018-02-27T04:02:08.925Z,0
2018-02-27T04:03:11.924Z,0
2018-02-27T04:04:14.328Z,0
2018-02-27T04:05:16.755Z,0
2018-02-27T04:06:19.162Z,0
2018-02-27T04:07:22.152Z,0
2018-02-27T04:08:24.563Z,0
2018-02-27T04:09:26.976Z,0
2018-02-27T04:10:29.390Z,0
2018-02-27T04:11:31.804Z,0
2018-02-27T04:12:34.218Z,0
2018-02-27T04:13:36.637Z,0
2018-02-27T04:14:39.057Z,0
2018-02-27T04:15:41.470Z,0
2018-02-27T04:16:44.206Z,0
2018-02-27T04:17:46.593Z,0
2018-02-27T04:18:49.008Z,0
2018-02-27T04:19:51.424Z,0
2018-02-27T04:20:53.831Z,0
2018-02-27T04:21:56.244Z,0
2018-02-27T04:22:58.652Z,0
2018-02-27T04:24:01.371Z,0
2018-02-27T04:25:04.068Z,0
2018-02-27T04:26:06.764Z,0
2018-02-27T04:27:09.180Z,0
2018-02-27T04:28:11.873Z,0
2018-02-27T04:29:14.283Z,0
2018-02-27T04:30:16.698Z,0
2018-02-27T04:31:19.104Z,0
2018-02-27T04:32:21.520Z,0
2018-02-27T04:33:23.955Z,0
2018-02-27T04:34:26.953Z,0
2018-02-27T04:35:29.363Z,0
2018-02-27T04:36:31.777Z,0
2018-02-27T04:37:34.191Z,0
2018-02-27T04:38:36.603Z,0
2018-02-27T04:39:39.332Z,0
2018-02-27T04:40:41.736Z,0
2018-02-27T04:41:44.436Z,0
2018-02-27T04:42:46.850Z,0
2018-02-27T04:43:49.262Z,0
2018-02-27T04:44:51.970Z,0
2018-02-27T04:45:54.392Z,0
2018-02-27T04:46:56.799Z,0
2018-02-27T04:47:59.220Z,0
2018-02-27T04:49:01.636Z,0
2018-02-27T04:50:04.350Z,0
2018-02-27T04:51:07.080Z,0
2018-02-27T04:52:10.067Z,0
2018-02-27T04:53:12.478Z,0
2018-02-27T04:54:14.898Z,0
2018-02-27T04:55:17.588Z,0
2018-02-27T04:56:20.004Z,0
2018-02-27T04:57:22.431Z,0
2018-02-27T04:58:24.840Z,0
2018-02-27T04:59:27.251Z,0
2018-02-27T05:00:29.955Z,0
2018-02-27T05:01:32.375Z,0
2018-02-27T05:02:34.790Z,0
2018-02-27T05:03:37.207Z,0
2018-02-27T05:04:39.615Z,0
2018-02-27T05:05:42.034Z,0
2018-02-27T05:06:44.465Z,0
2018-02-27T05:07:46.872Z,0
2018-02-27T05:08:49.284Z,0
2018-02-27T05:09:51.704Z,0
2018-02-27T05:10:54.400Z,0
2018-02-27T05:11:56.827Z,0
2018-02-27T05:12:59.235Z,0
2018-02-27T05:14:01.657Z,0
2018-02-27T05:15:04.071Z,0
2018-02-27T05:16:06.769Z,0
2018-02-27T05:17:09.179Z,0
2018-02-27T05:18:11.917Z,0
2018-02-27T05:19:14.621Z,0
2018-02-27T05:20:17.040Z,0
2018-02-27T05:21:19.465Z,0
2018-02-27T05:22:21.874Z,0
2018-02-27T05:23:24.305Z,0
2018-02-27T05:24:27.008Z,0
2018-02-27T05:25:29.424Z,0
2018-02-27T05:26:32.154Z,0
2018-02-27T05:27:34.852Z,0
2018-02-27T05:28:37.279Z,0
2018-02-27T05:29:39.984Z,0
2018-02-27T05:30:42.681Z,0
2018-02-27T05:31:45.435Z,0
2018-02-27T05:32:47.851Z,0
2018-02-27T05:33:50.270Z,0
2018-02-27T05:34:52.680Z,0
2018-02-27T05:35:55.090Z,0
2018-02-27T05:36:57.507Z,0
2018-02-27T05:37:59.927Z,0
2018-02-27T05:39:02.633Z,0
2018-02-27T05:40:05.325Z,0
2018-02-27T05:41:07.745Z,0
2018-02-27T05:42:10.163Z,0
2018-02-27T05:43:12.587Z,0
2018-02-27T05:44:15.002Z,0
2018-02-27T05:45:17.410Z,0
2018-02-27T05:46:20.122Z,0
2018-02-27T05:47:22.539Z,0
2018-02-27T05:48:25.240Z,0
2018-02-27T05:49:27.650Z,0
2018-02-27T05:50:30.062Z,0
2018-02-27T05:51:32.474Z,0
2018-02-27T05:52:35.195Z,0
2018-02-27T05:53:37.901Z,0
2018-02-27T05:54:40.302Z,0
2018-02-27T05:55:42.999Z,0
2018-02-27T05:56:45.426Z,0
2018-02-27T05:57:47.835Z,1
2018-02-27T05:58:50.248Z,1
2018-02-27T05:59:52.667Z,1
2018-02-27T06:00:55.369Z,1
2018-02-27T06:01:57.784Z,1
2018-02-27T06:03:00.212Z,1
2018-02-27T06:04:02.900Z,1
2018-02-27T06:05:05.901Z,2
2018-02-27T06:06:08.321Z,2
2018-02-27T06:07:10.733Z,2
2018-02-27T06:08:13.150Z,2
2018-02-27T06:09:15.859Z,2
2018-02-27T06:10:18.264Z,3
2018-02-27T06:11:20.682Z,3
2018-02-27T06:12:23.098Z,3
2018-02-27T06:13:25.508Z,3
2018-02-27T06:14:27.921Z,4
2018-02-27T06:15:30.338Z,4
2018-02-27T06:16:33.024Z,4
2018-02-27T06:17:35.451Z,4
2018-02-27T06:18:37.860Z,5
2018-02-27T06:19:40.277Z,5
2018-02-27T06:20:42.698Z,5
2018-02-27T06:21:45.401Z,6
2018-02-27T06:22:47.849Z,6
2018-02-27T06:23:50.542Z,6
2018-02-27T06:24:52.959Z,7
2018-02-27T06:25:55.372Z,7
2018-02-27T06:26:57.792Z,7
2018-02-27T06:28:00.200Z,8
2018-02-27T06:29:02.899Z,8
2018-02-27T06:30:05.319Z,9
2018-02-27T06:31:07.740Z,9
2018-02-27T06:32:10.157Z,10
2018-02-27T06:33:12.572Z,10
2018-02-27T06:34:14.983Z,11
2018-02-27T06:35:17.404Z,11
2018-02-27T06:36:19.819Z,11
2018-02-27T06:37:22.228Z,11
2018-02-27T06:38:24.650Z,12
2018-02-27T06:39:27.390Z,13
2018-02-27T06:40:30.049Z,13
2018-02-27T06:41:32.761Z,14
2018-02-27T06:42:35.164Z,14
2018-02-27T06:43:37.871Z,15
2018-02-27T06:44:40.297Z,15
2018-02-27T06:45:42.709Z,16
2018-02-27T06:46:45.130Z,16
2018-02-27T06:47:47.544Z,16
2018-02-27T06:48:49.955Z,16
2018-02-27T06:49:52.429Z,16
2018-02-27T06:50:55.133Z,17
2018-02-27T06:51:57.537Z,17
2018-02-27T06:52:59.964Z,18
2018-02-27T06:54:02.376Z,18
2018-02-27T06:55:04.793Z,19
2018-02-27T06:56:07.201Z,20
2018-02-27T06:57:09.909Z,20
2018-02-27T06:58:12.327Z,21
2018-02-27T06:59:14.751Z,21
2018-02-27T07:00:17.159Z,22
2018-02-27T07:01:19.579Z,23
2018-02-27T07:02:21.985Z,23
2018-02-27T07:03:24.410Z,24
2018-02-27T07:04:26.819Z,25
2018-02-27T07:05:29.235Z,26
2018-02-27T07:06:31.646Z,26
2018-02-27T07:07:34.064Z,28
2018-02-27T07:08:36.478Z,32
2018-02-27T07:09:38.908Z,30
2018-02-27T07:10:41.319Z,30
2018-02-27T07:11:43.740Z,29
2018-02-27T07:12:46.152Z,30
2018-02-27T07:13:48.575Z,31
2018-02-27T07:14:50.984Z,31
2018-02-27T07:15:53.422Z,30
2018-02-27T07:16:56.110Z,30
2018-02-27T07:17:58.540Z,30
2018-02-27T07:19:00.958Z,29
2018-02-27T07:20:03.675Z,29
2018-02-27T07:21:06.095Z,30
2018-02-27T07:22:08.513Z,30
2018-02-27T07:23:10.914Z,30
2018-02-27T07:24:13.324Z,31
2018-02-27T07:25:15.750Z,32
2018-02-27T07:26:18.162Z,32
2018-02-27T07:27:20.913Z,33
2018-02-27T07:28:23.583Z,35
2018-02-27T07:29:26.003Z,37
2018-02-27T07:30:28.417Z,60
2018-02-27T07:31:30.836Z,87
2018-02-27T07:32:33.256Z,84
2018-02-27T07:33:35.978Z,95
2018-02-27T07:34:38.405Z,107
2018-02-27T07:35:40.817Z,123
2018-02-27T07:36:43.816Z,134
2018-02-27T07:37:46.239Z,140
2018-02-27T07:38:48.658Z,141
2018-02-27T07:39:51.084Z,138
2018-02-27T07:40:53.786Z,130
2018-02-27T07:41:56.204Z,128
2018-02-27T07:42:58.627Z,119
2018-02-27T07:44:01.050Z,101
2018-02-27T07:45:03.470Z,111
2018-02-27T07:46:06.181Z,106
2018-02-27T07:47:08.600Z,108
2018-02-27T07:48:11.022Z,111
2018-02-27T07:49:13.437Z,113
2018-02-27T07:50:15.858Z,116
2018-02-27T07:51:18.270Z,123
2018-02-27T07:52:20.685Z,139
2018-02-27T07:53:23.108Z,156
2018-02-27T07:54:25.530Z,156
2018-02-27T07:55:27.948Z,160
2018-02-27T07:56:30.365Z,171
2018-02-27T07:57:32.792Z,181
2018-02-27T07:58:35.501Z,196
2018-02-27T07:59:37.919Z,206
2018-02-27T08:00:40.349Z,191
2018-02-27T08:01:43.055Z,158
2018-02-27T08:02:45.467Z,140
2018-02-27T08:03:47.903Z,74
2018-02-27T08:04:50.320Z,122
2018-02-27T08:05:53.024Z,130
2018-02-27T08:06:55.454Z,109
2018-02-27T08:07:57.861Z,148
2018-02-27T08:09:00.291Z,151
2018-02-27T08:10:03.021Z,144
2018-02-27T08:11:05.439Z,144
2018-02-27T08:12:07.884Z,133
2018-02-27T08:13:10.571Z,141
2018-02-27T08:14:12.996Z,137
2018-02-27T08:15:15.433Z,119
2018-02-27T08:16:17.854Z,125
2018-02-27T08:17:20.268Z,145
2018-02-27T08:18:22.694Z,141
2018-02-27T08:19:25.109Z,158
2018-02-27T08:20:27.880Z,157
2018-02-27T08:21:30.561Z,141
2018-02-27T08:22:33.265Z,217
2018-02-27T08:23:35.689Z,213
2018-02-27T08:24:38.119Z,176
2018-02-27T08:25:40.546Z,165
2018-02-27T08:26:42.969Z,133
2018-02-27T08:27:45.392Z,188
2018-02-27T08:28:47.824Z,142
2018-02-27T08:29:50.804Z,82
2018-02-27T08:30:53.234Z,94
2018-02-27T08:31:55.929Z,141
2018-02-27T08:32:58.668Z,162
2018-02-27T08:34:01.093Z,75
2018-02-27T08:35:03.516Z,62
2018-02-27T08:36:05.940Z,54
2018-02-27T08:37:08.368Z,48
2018-02-27T08:38:10.791Z,37
2018-02-27T08:39:13.212Z,30
2018-02-27T08:40:15.638Z,27
2018-02-27T08:41:18.054Z,29
2018-02-27T08:42:20.478Z,32
2018-02-27T08:43:22.910Z,35
2018-02-27T08:44:25.331Z,38
2018-02-27T08:45:28.331Z,43
2018-02-27T08:46:30.752Z,45
2018-02-27T08:47:33.173Z,47
2018-02-27T08:48:35.596Z,48
2018-02-27T08:49:38.025Z,47
2018-02-27T08:50:40.433Z,52
2018-02-27T08:51:42.858Z,57
2018-02-27T08:52:45.284Z,51
2018-02-27T08:53:47.704Z,51
2018-02-27T08:54:50.693Z,47
2018-02-27T08:55:53.120Z,39
2018-02-27T08:56:55.544Z,36
2018-02-27T08:57:58.240Z,28
2018-02-27T08:59:00.938Z,29
2018-02-27T09:00:03.650Z,26
2018-02-27T09:01:06.071Z,30
2018-02-27T09:02:08.497Z,43
2018-02-27T09:03:10.914Z,48
2018-02-27T09:04:13.334Z,53
2018-02-27T09:05:15.769Z,50
2018-02-27T09:06:18.475Z,45
2018-02-27T09:07:20.891Z,39
2018-02-27T09:08:23.590Z,36
2018-02-27T09:09:26.016Z,39
2018-02-27T09:10:28.429Z,40
2018-02-27T09:11:30.851Z,41
2018-02-27T09:12:33.562Z,47
2018-02-27T09:13:35.974Z,56
2018-02-27T09:14:38.420Z,59
2018-02-27T09:15:41.107Z,57
2018-02-27T09:16:43.534Z,65
2018-02-27T09:17:45.956Z,71
2018-02-27T09:18:48.381Z,72
2018-02-27T09:19:50.802Z,81
2018-02-27T09:20:53.227Z,84
2018-02-27T09:21:55.636Z,84
2018-02-27T09:22:58.056Z,89
2018-02-27T09:24:00.765Z,85
2018-02-27T09:25:03.186Z,84
2018-02-27T09:26:05.600Z,94
2018-02-27T09:27:08.030Z,99
2018-02-27T09:28:10.443Z,107
2018-02-27T09:29:12.870Z,128
2018-02-27T09:30:15.303Z,129
2018-02-27T09:31:17.714Z,111
2018-02-27T09:32:20.142Z,119
2018-02-27T09:33:22.558Z,132
2018-02-27T09:34:24.972Z,127
2018-02-27T09:35:27.390Z,135
2018-02-27T09:36:29.806Z,239
2018-02-27T09:37:32.539Z,141
2018-02-27T09:38:34.952Z,191
2018-02-27T09:39:37.375Z,170
2018-02-27T09:40:39.819Z,187
2018-02-27T09:41:42.206Z,133
2018-02-27T09:42:44.628Z,113
2018-02-27T09:43:47.056Z,164
2018-02-27T09:44:49.824Z,231
2018-02-27T09:45:52.592Z,138
2018-02-27T09:46:54.961Z,134
2018-02-27T09:47:57.389Z,84
2018-02-27T09:48:59.813Z,106
2018-02-27T09:50:02.801Z,59
2018-02-27T09:51:05.224Z,80
2018-02-27T09:52:07.950Z,74
2018-02-27T09:53:10.346Z,69
2018-02-27T09:54:12.765Z,69
2018-02-27T09:55:15.202Z,58
2018-02-27T09:56:17.612Z,69
2018-02-27T09:57:20.042Z,56
2018-02-27T09:58:22.470Z,55
2018-02-27T09:59:25.176Z,75
2018-02-27T10:00:27.600Z,81
2018-02-27T10:01:30.029Z,64
2018-02-27T10:02:32.438Z,67
2018-02-27T10:03:34.872Z,71
2018-02-27T10:04:37.297Z,62
2018-02-27T10:05:39.715Z,58
2018-02-27T10:06:42.712Z,55
2018-02-27T10:07:45.132Z,53
2018-02-27T10:08:47.844Z,59
2018-02-27T10:09:50.261Z,69
2018-02-27T10:10:52.694Z,65
2018-02-27T10:11:55.117Z,74
2018-02-27T10:12:57.534Z,103
2018-02-27T10:13:59.969Z,104
2018-02-27T10:15:02.381Z,106
2018-02-27T10:16:05.127Z,117
2018-02-27T10:17:07.547Z,138
2018-02-27T10:18:09.975Z,155
2018-02-27T10:19:12.391Z,177
2018-02-27T10:20:14.821Z,189
2018-02-27T10:21:17.244Z,187
2018-02-27T10:22:19.991Z,214
2018-02-27T10:23:22.421Z,193
2018-02-27T10:24:24.830Z,281
2018-02-27T10:25:27.263Z,205
2018-02-27T10:26:29.679Z,199
2018-02-27T10:27:32.194Z,182
2018-02-27T10:28:34.546Z,137
2018-02-27T10:29:37.261Z,122
2018-02-27T10:30:39.753Z,73
2018-02-27T10:31:42.108Z,59
2018-02-27T10:32:44.530Z,57
2018-02-27T10:33:46.955Z,50
2018-02-27T10:34:49.689Z,50
2018-02-27T10:35:52.156Z,59
2018-02-27T10:36:54.820Z,58
2018-02-27T10:37:57.250Z,45
2018-02-27T10:38:59.665Z,46
2018-02-27T10:40:02.101Z,45
2018-02-27T10:41:04.523Z,49
2018-02-27T10:42:07.530Z,58
2018-02-27T10:43:09.948Z,61
2018-02-27T10:44:12.374Z,60
2018-02-27T10:45:14.800Z,62
2018-02-27T10:46:17.230Z,90
2018-02-27T10:47:19.922Z,94
2018-02-27T10:48:22.347Z,91
2018-02-27T10:49:24.772Z,83
2018-02-27T10:50:27.204Z,76
2018-02-27T10:51:29.614Z,73
2018-02-27T10:52:32.057Z,73
2018-02-27T10:53:34.467Z,61
2018-02-27T10:54:37.183Z,54
2018-02-27T10:55:39.610Z,48
2018-02-27T10:56:42.023Z,47
2018-02-27T10:57:44.746Z,38
2018-02-27T10:58:47.174Z,29
2018-02-27T10:59:49.583Z,21
2018-02-27T11:00:52.300Z,21
2018-02-27T11:01:54.725Z,25
2018-02-27T11:02:57.169Z,26
2018-02-27T11:03:59.874Z,28
2018-02-27T11:05:02.297Z,29
2018-02-27T11:06:04.723Z,29
2018-02-27T11:07:07.155Z,28
2018-02-27T11:08:09.577Z,29
2018-02-27T11:09:12.010Z,31
2018-02-27T11:10:14.432Z,28
2018-02-27T11:11:16.857Z,24
2018-02-27T11:12:19.574Z,22
2018-02-27T11:13:21.986Z,21
2018-02-27T11:14:24.407Z,21
2018-02-27T11:15:27.117Z,22
2018-02-27T11:16:29.532Z,24
2018-02-27T11:17:31.954Z,25
2018-02-27T11:18:34.652Z,27
2018-02-27T11:19:37.075Z,27
2018-02-27T11:20:39.511Z,19
2018-02-27T11:21:41.920Z,19
2018-02-27T11:22:44.340Z,23
2018-02-27T11:23:46.766Z,27
2018-02-27T11:24:49.190Z,30
2018-02-27T11:25:51.609Z,30
2018-02-27T11:26:54.022Z,32
2018-02-27T11:27:56.449Z,34
2018-02-27T11:28:59.148Z,37
2018-02-27T11:30:01.578Z,39
2018-02-27T11:31:03.997Z,43
2018-02-27T11:32:06.414Z,46
2018-02-27T11:33:08.837Z,48
2018-02-27T11:34:11.275Z,49
2018-02-27T11:35:13.682Z,51
2018-02-27T11:36:16.104Z,56
2018-02-27T11:37:18.517Z,59
2018-02-27T11:38:20.943Z,64
2018-02-27T11:39:23.365Z,71
2018-02-27T11:40:25.779Z,76
2018-02-27T11:41:28.205Z,82
2018-02-27T11:42:30.624Z,93
2018-02-27T11:43:33.034Z,95
2018-02-27T11:44:35.469Z,106
2018-02-27T11:45:37.893Z,102
2018-02-27T11:46:40.289Z,109
2018-02-27T11:47:42.717Z,125
2018-02-27T11:48:45.427Z,134
2018-02-27T11:49:48.141Z,131
2018-02-27T11:50:50.549Z,143
2018-02-27T11:51:53.268Z,145
2018-02-27T11:52:55.975Z,139
2018-02-27T11:53:58.405Z,138
2018-02-27T11:55:00.816Z,135
2018-02-27T11:56:03.236Z,162
2018-02-27T11:57:05.664Z,197
2018-02-27T11:58:08.947Z,233
2018-02-27T11:59:11.367Z,241
2018-02-27T12:00:14.074Z,208
2018-02-27T12:01:16.516Z,312
2018-02-27T12:02:19.268Z,332
2018-02-27T12:03:21.939Z,335
2018-02-27T12:04:24.358Z,361
2018-02-27T12:05:26.776Z,377
2018-02-27T12:06:29.201Z,372
2018-02-27T12:07:31.627Z,355
2018-02-27T12:08:34.043Z,334
2018-02-27T12:09:36.465Z,290
2018-02-27T12:10:39.496Z,215
2018-02-27T12:11:41.918Z,179
2018-02-27T12:12:44.338Z,173
2018-02-27T12:13:46.770Z,164
2018-02-27T12:14:49.184Z,175
2018-02-27T12:15:51.615Z,208
2018-02-27T12:16:54.049Z,199
2018-02-27T12:17:56.761Z,174
2018-02-27T12:18:59.773Z,159
2018-02-27T12:20:02.195Z,163
2018-02-27T12:21:04.633Z,184
2018-02-27T12:22:07.055Z,193
2018-02-27T12:23:09.775Z,200
2018-02-27T12:24:12.200Z,192
2018-02-27T12:25:14.920Z,194
2018-02-27T12:26:17.347Z,231
2018-02-27T12:27:19.763Z,168
2018-02-27T12:28:22.194Z,187
2018-02-27T12:29:24.611Z,189
2018-02-27T12:30:27.329Z,185
2018-02-27T12:31:29.751Z,182
2018-02-27T12:32:32.180Z,187
2018-02-27T12:33:34.607Z,205
2018-02-27T12:34:37.035Z,293
2018-02-27T12:35:39.459Z,195
2018-02-27T12:36:41.889Z,183
2018-02-27T12:37:44.319Z,193
2018-02-27T12:38:46.750Z,175
2018-02-27T12:39:49.189Z,180
2018-02-27T12:40:51.615Z,173
2018-02-27T12:41:54.353Z,149
2018-02-27T12:42:56.750Z,140
2018-02-27T12:43:59.174Z,140
2018-02-27T12:45:02.176Z,159
2018-02-27T12:46:04.594Z,159
2018-02-27T12:47:07.033Z,154
2018-02-27T12:48:09.446Z,147
2018-02-27T12:49:11.888Z,145
2018-02-27T12:50:14.301Z,145
2018-02-27T12:51:16.722Z,151
2018-02-27T12:52:19.151Z,212
2018-02-27T12:53:21.589Z,182
2018-02-27T12:54:24.007Z,208
2018-02-27T12:55:26.434Z,217
2018-02-27T12:56:28.859Z,216
2018-02-27T12:57:31.292Z,248
2018-02-27T12:58:33.715Z,217
2018-02-27T12:59:36.144Z,334
2018-02-27T13:00:38.564Z,236
2018-02-27T13:01:40.993Z,208
2018-02-27T13:02:43.425Z,169
2018-02-27T13:03:45.845Z,152
2018-02-27T13:04:48.268Z,130
2018-02-27T13:05:50.700Z,121
2018-02-27T13:06:53.404Z,121
2018-02-27T13:07:55.832Z,134
2018-02-27T13:08:58.262Z,128
2018-02-27T13:10:00.695Z,176
2018-02-27T13:11:03.129Z,169
2018-02-27T13:12:05.574Z,273
2018-02-27T13:13:08.013Z,178
2018-02-27T13:14:10.452Z,276
2018-02-27T13:15:12.892Z,299
2018-02-27T13:16:15.335Z,187
2018-02-27T13:17:17.794Z,151
2018-02-27T13:18:20.544Z,317
2018-02-27T13:19:22.980Z,249
2018-02-27T13:20:25.707Z,228
2018-02-27T13:21:28.151Z,249
2018-02-27T13:22:30.867Z,259
2018-02-27T13:23:33.288Z,241
2018-02-27T13:24:35.755Z,236
2018-02-27T13:25:38.181Z,229
2018-02-27T13:26:40.638Z,231
2018-02-27T13:27:43.091Z,239
2018-02-27T13:28:45.524Z,270
2018-02-27T13:29:47.963Z,271
2018-02-27T13:30:50.417Z,264
2018-02-27T13:31:52.852Z,151
2018-02-27T13:32:55.577Z,162
2018-02-27T13:33:58.010Z,198
2018-02-27T13:35:00.438Z,221
2018-02-27T13:36:02.919Z,147
2018-02-27T13:37:05.698Z,227
2018-02-27T13:38:08.136Z,223
2018-02-27T13:39:10.581Z,224
2018-02-27T13:40:13.014Z,225
2018-02-27T13:41:16.049Z,210
2018-02-27T13:42:18.614Z,208
2018-02-27T13:43:21.077Z,225
2018-02-27T13:44:23.801Z,210
2018-02-27T13:45:26.244Z,198
2018-02-27T13:46:28.682Z,191
2018-02-27T13:47:31.409Z,136
2018-02-27T13:48:34.180Z,131
2018-02-27T13:49:36.607Z,131
2018-02-27T13:50:39.025Z,192
2018-02-27T13:51:41.483Z,181
2018-02-27T13:52:43.915Z,184
2018-02-27T13:53:46.661Z,155
2018-02-27T13:54:49.100Z,162
2018-02-27T13:55:51.533Z,168
2018-02-27T13:56:53.987Z,155
2018-02-27T13:57:56.778Z,209
2018-02-27T13:58:59.206Z,203
2018-02-27T14:00:01.633Z,194
2018-02-27T14:01:04.063Z,197
2018-02-27T14:02:06.495Z,187
2018-02-27T14:03:08.948Z,164
2018-02-27T14:04:11.387Z,191
2018-02-27T14:05:13.811Z,178
2018-02-27T14:06:16.280Z,157
2018-02-27T14:07:18.712Z,150
2018-02-27T14:08:21.142Z,175
2018-02-27T14:09:23.566Z,197
2018-02-27T14:10:26.006Z,184
2018-02-27T14:11:28.430Z,171
2018-02-27T14:12:30.891Z,137
2018-02-27T14:13:33.614Z,169
2018-02-27T14:14:36.044Z,186
2018-02-27T14:15:38.502Z,179
2018-02-27T14:16:40.934Z,149
2018-02-27T14:17:43.662Z,161
2018-02-27T14:18:46.098Z,168
2018-02-27T14:19:48.516Z,150
2018-02-27T14:20:51.241Z,143
2018-02-27T14:21:53.670Z,127
2018-02-27T14:22:56.096Z,120
2018-02-27T14:23:58.513Z,117
2018-02-27T14:25:00.956Z,117
2018-02-27T14:26:03.679Z,119
2018-02-27T14:27:06.106Z,121
2018-02-27T14:28:08.541Z,126
2018-02-27T14:29:10.955Z,131
2018-02-27T14:30:13.383Z,115
2018-02-27T14:31:15.820Z,97
2018-02-27T14:32:18.240Z,96
2018-02-27T14:33:20.651Z,90
2018-02-27T14:34:23.377Z,85
2018-02-27T14:35:25.793Z,102
2018-02-27T14:36:28.223Z,124
2018-02-27T14:37:30.648Z,118
2018-02-27T14:38:33.062Z,113
2018-02-27T14:39:35.782Z,112
2018-02-27T14:40:38.213Z,101
2018-02-27T14:41:40.636Z,79
2018-02-27T14:42:43.066Z,57
2018-02-27T14:43:46.071Z,48
2018-02-27T14:44:48.493Z,41
2018-02-27T14:45:50.923Z,34
2018-02-27T14:46:53.352Z,30
2018-02-27T14:47:55.766Z,28
2018-02-27T14:48:58.185Z,24
2018-02-27T14:50:00.623Z,23
2018-02-27T14:51:03.050Z,24
2018-02-27T14:52:05.469Z,24
2018-02-27T14:53:07.891Z,24
2018-02-27T14:54:10.320Z,24
2018-02-27T14:55:12.734Z,26